KIPL/IPL METAR and TAF weather

Enter ICAO airport designator
Station Type Date Time Source
KIPL METAR 2019/02/17 07:53 UTC NOAA

KIPL 170753Z AUTO 27008KT 10SM CLR 08/01 A3000 RMK AO2 SLP157 T00830006 401720078


Station Type Date Time Source
KIPL Decoded METAR 2019/02/17 07:53 UTC NOAA

Imperial, Imperial County Airport, CA, United States (KIPL) 32-50-03N 115-34-43W -15M
Feb 17, 2019 - 02:53 AM EST / 2019.02.17 0753 UTC
Wind: from the W (270 degrees) at 9 MPH (8 KT):0
Visibility: 10 mile(s):0
Sky conditions: clear
Temperature: 46.9 F (8.3 C)
Dew Point: 33.1 F (0.6 C)
Relative Humidity: 58%
Pressure (altimeter): 30 in. Hg (1015 hPa)
ob: KIPL 170753Z AUTO 27008KT 10SM CLR 08/01 A3000 RMK AO2 SLP157 T00830006 401720078
cycle: 8

Station Type Date Time Source
KIPL TAF 2019/02/17 06:30 UTC NOAA

TAF KIPL 170528Z 1706/1806 27014KT P6SM FEW050 FEW250
FM171800 27017G25KT P6SM SCT050 SCT250
FM180000 27026G34KT P6SM BKN050


Example: see airport list